Weather observations for the past three days for
Colorado Air and Space Port Airport
Metric (Imperial)
Date Time (mdt) Wind (kph) Vis. (km) Weather Sky Cond. Temperature (ºC) Relative Humidity Wind Chill (°C) Heat Index (°C) Pressure Precipitation (cm)
Air Dwpt 6 hour altimeter (cm) sea level (mb) 1 hr 3 hr 6 hr
Max. Min.
02 08:47 SW 15 16.09 Fair CLR 13 -7 24% 76.76 0.0
02 06:47 SW 15 16.09 Fair CLR 6 -5 46% 3 76.71 0.0
02 06:35 SW 13 16.09 Fair CLR 5 -5 49% 2 76.71 0.0
02 06:15 SW 13 16.09 Fair CLR 4.5 -5 51% 2 76.71 0.0
02 05:55 SW 11 16.09 Fair CLR 4.5 -5.1 8.2 4.5 50% 2 76.71 0.0
02 05:35 SW 15 16.09 Fair CLR 4.5 -5.1 50% 2 76.68 0.0
02 05:15 SW 17 16.09 Fair CLR 5.1 -5.2 48% 2 76.68 0.0
02 04:55 SW 17 16.09 Fair CLR 5.4 -5.3 46% 2 76.68 0.0
02 04:35 SW 19 16.09 Fair CLR 5.7 -5.5 45% 2 76.68 0.0
02 04:15 SW 19 16.09 Fair CLR 5.6 -5.2 46% 2 76.68 0.0
02 03:55 SW 13 16.09 Fair CLR 5.5 -5.1 47% 3 76.66 0.0
02 03:35 SW 13 16.09 Fair CLR 5.8 -5.1 46% 3 76.66 0.0
02 03:15 SW 19 16.09 Fair CLR 6.3 -5 45% 3 76.66 0.0
02 02:55 SW 17 16.09 Fair CLR 6.4 -5 44% 4 76.66 0.0
02 02:35 SW 15 16.09 Fair CLR 6.5 -5.2 43% 4 76.66 0.0
02 02:15 SW 17 16.09 Fair CLR 6.5 -5.4 43% 4 76.66 0.0
02 01:55 SW 15 16.09 Fair CLR 7.3 -6 39% 5 76.68 0.0
02 01:35 SW 15 16.09 Fair CLR 7.4 -5.9 39% 5 76.68 0.0
02 01:15 SW 15 16.09 Fair CLR 7 -5.5 41% 5 76.68 0.0
02 00:55 SW 15 16.09 Partly Cloudy SCT100 6.6 -5.7 41% 4 76.68 0.0
02 00:35 S 13 16.09 Overcast OVC100 6.9 -5.8 40% 5 76.68 0.0
02 00:15 S 15 16.09 Overcast OVC100 6.8 -5 43% 4 76.68 0.0
01 23:55 S 15 16.09 Overcast OVC100 6.9 -4.9 17.2 5.6 43% 4 76.68 0.0
01 23:35 S 15 16.09 Overcast OVC100 6.5 -5.1 44% 4 76.68 0.0
01 23:15 S 11 16.09 Mostly Cloudy BKN100 7 -7.1 36% 5 76.68 0.0
01 22:55 SE 7 16.09 Partly Cloudy SCT110 6.2 -6.3 41% 5 76.66 0.0
01 22:35 SE 9 16.09 Partly Cloudy SCT100 6.1 -6.4 41% 4 76.66 0.0
01 22:15 SE 7 16.09 Mostly Cloudy BKN110 6.9 -7.5 35% 6 76.66 0.0
01 21:55 E 6 16.09 Partly Cloudy SCT110 8.3 -8.8 29% 76.66 0.0
01 21:35 E 7 16.09 Fair CLR 10.2 -10 23% 76.63 0.0
01 21:15 E 6 16.09 Fair CLR 10.8 -10.9 21% 76.61 0.0
01 20:47 NE 6 16.09 Fair CLR 12 -11 19% 76.58 0.0
01 14:47 W 13 16.09 Fair CLR 16 -12 13% 76.53 0.0
01 13:47 NW 19 G 26 16.09 Fair CLR 16 -11 15% 76.56 0.0
01 12:47 NE 9 G 24 16.09 Partly Cloudy SCT075 14 -9 20% 76.58 0.0
01 11:47 W 7 16.09 Fair CLR 14 -6 25% 76.61 0.0
01 10:47 N 7 16.09 Fair CLR 11 -3 38% 76.66 0.0
01 09:47 N 7 16.09 Fair CLR 11 -3 38% 76.66 0.0
01 08:47 W 13 16.09 Fair CLR 9 2 62% 7 76.66 0.0
01 07:47 SW 13 16.09 Fair CLR 7 2 71% 5 76.63 0.0
01 06:47 SW 11 16.09 Fair CLR 4 1 81% 2 76.61 0.0
01 06:35 SW 11 16.09 Fair CLR 4 0.5 78% 2 76.61 0.0
01 06:15 SW 13 16.09 Fair CLR 3.6 0.5 80% 1 76.58 0.0
01 05:55 SW 13 16.09 Fair CLR 3.5 0.6 5.5 2.9 82% 1 76.56 0.0
01 05:35 SW 13 16.09 Fair CLR 3.3 0.7 83% 0 76.58 0.0
01 05:15 SW 13 16.09 Fair CLR 3.3 1 85% 0 76.58 0.0
01 04:55 SW 15 16.09 Fair CLR 3.6 1.4 86% 0 76.61 0.0
01 04:35 SW 15 16.09 Fair CLR 3.3 1.5 88% 0 76.61 0.0
01 04:15 SW 17 16.09 Fair CLR 3.2 1.4 88% -0 76.61 0.0
01 03:55 SW 15 16.09 Fair CLR 3.1 1.5 89% -0 76.61 0.0
01 03:35 SW 15 16.09 Fair CLR 3 1.2 88% -0 76.61 0.0
01 03:15 SW 15 16.09 Fair CLR 3.2 1.5 89% -0 76.61 0.0
01 02:55 SW 15 16.09 Fair CLR 3.5 1.6 88% 0 76.61 0.0
01 02:35 SW 15 16.09 Fair CLR 3.6 1.6 87% 0 76.61 0.0
01 02:15 SW 13 16.09 Fair CLR 3.5 1.6 88% 1 76.63 0.0
01 01:55 SW 13 16.09 Fair CLR 3.6 1.7 88% 1 76.63 0.0
01 01:35 SW 15 16.09 Fair CLR 4.1 2 86% 1 76.66 0.0
01 01:15 SW 15 16.09 Partly Cloudy SCT120 4.4 2.1 85% 1 76.68 0.0
01 00:55 SW 13 16.09 Partly Cloudy SCT120 4.6 2.4 86% 2 76.68 0.0
01 00:35 SW 11 16.09 Fair CLR 5 2.5 84% 3 76.68 0.0
01 00:15 SW 13 16.09 Partly Cloudy SCT080 SCT110 5.2 2.6 84% 3 76.68 0.0
30 23:55 SW 13 16.09 Partly Cloudy SCT120 5.5 2.6 9 5.5 82% 3 76.68 0.0
30 23:35 SW 11 16.09 Partly Cloudy SCT120 6.2 2.6 78% 4 76.68 0.0
30 23:15 SW 11 16.09 Mostly Cloudy BKN075 BKN120 6.2 2.6 78% 4 76.66 0.0
30 22:55 SW 11 16.09 Overcast OVC075 6.9 3 76% 5 76.66 0.0
30 22:35 SW 11 16.09 Overcast OVC075 6.2 3.5 83% 4 76.66 0.0
30 22:15 S 9 16.09 Overcast OVC075 6.6 3.3 80% 5 76.66 0.0
30 21:55 S 7 16.09 Overcast OVC075 6.7 3.1 78% 6 76.68 0.0
30 21:35 S 9 16.09 Overcast OVC075 7 2.8 75% 5 76.66 0.0
30 21:15 SE 9 16.09 Overcast SCT030 OVC075 7.1 2.7 74% 6 76.66 0.0
30 16:47 E 15 16.09 Partly Cloudy SCT032 9 1 58% 7 76.56 0.0
30 14:47 E 17 16.09 Mostly Cloudy BKN029 8 1 62% 6 76.61 0.0
30 13:47 E 19 16.09 Overcast SCT019 OVC049 7 3 76% 4 76.61 0.0
30 12:47 E 19 16.09 Overcast OVC009 7 3 76% 4 76.61 0.0
30 09:47 Calm 16.09 Overcast OVC029 6 2 76% 76.63 0.0
30 08:47 N 11 16.09 Overcast OVC031 6 1 71% 4 76.63 0.0
30 07:47 N 15 16.09 Fair CLR 6 2 76% 3 76.63 0.0
30 06:47 NW 15 16.09 Fair CLR 5 3 87% 2 76.61 0.0
30 06:35 W 9 16.09 Overcast SCT023 BKN032 OVC095 5.5 4 90% 4 76.58 0.0
30 06:15 W 9 16.09 Light Drizzle BKN023 BKN034 OVC080 5.5 4 90% 4 76.56 0.0
30 05:55 W 7 16.09 Light Drizzle SCT032 BKN037 OVC055 5.5 4.1 7.6 5.5 91% 4 76.56 0.0
30 05:35 W 13 16.09 Drizzle OVC034 5.7 4.2 90% 3 76.56 0.0
30 05:15 W 13 16.09 Overcast OVC038 6 4.5 90% 4 76.56 0.0
30 04:55 W 9 16.09 Overcast BKN042 OVC070 6.1 4.1 87% 4 76.56 0.0
30 04:35 SW 11 16.09 Overcast OVC070 6.1 4.1 87% 4 76.56 0.0
30 04:15 S 11 16.09 Overcast BKN070 OVC080 6.2 4.2 87% 4 76.56 0.0
30 03:55 SW 13 16.09 Overcast SCT045 OVC060 6.5 4.1 85% 4 76.56 0.0
30 03:35 S 9 16.09 Drizzle BKN038 BKN046 OVC055 6.5 3.8 83% 5 76.56 0.0
30 03:15 S 11 16.09 Drizzle SCT030 OVC038 6.7 4.9 88% 5 76.56 0.0
30 02:55 S 9 16.09 Rain SCT029 BKN035 OVC043 7 5.3 89% 5 76.56 0.0
30 02:35 S 9 16.09 Overcast SCT043 OVC055 7 5.3 89% 5 76.56 0.0
30 02:15 S 7 16.09 Overcast BKN048 OVC055 7 5.5 90% 6 76.56 0.0
30 01:55 S 9 16.09 Overcast BKN048 OVC055 7.1 5.5 90% 6 76.56 0.0
30 01:35 S 9 16.09 Overcast SCT037 BKN050 OVC085 7.2 5.6 90% 6 76.58 0.0
30 01:15 S 7 16.09 Light Drizzle BKN031 BKN044 OVC070 7.5 5.7 89% 6 76.61 0.0
30 00:55 SE 6 16.09 Light Rain BKN029 OVC037 7.6 5.7 88% 76.61 0.0
30 00:35 SE 6 16.09 Drizzle SCT031 BKN040 OVC065 7.5 5.5 87% 76.61 0.0
30 00:15 E 6 16.09 Overcast SCT035 BKN048 OVC065 7.3 5.3 87% 76.61 0.0
29 23:55 SE 7 16.09 Overcast BKN037 OVC050 7.2 5.1 11.3 7.2 87% 6 76.61 0.0
29 23:35 E 7 16.09 Light Rain BKN037 BKN048 OVC060 7.3 4.9 85% 6 76.63 0.0
29 23:15 NE 9 16.09 Light Drizzle SCT037 SCT060 OVC070 7.5 4.6 82% 6 76.63 0.0
29 22:55 NE 11 16.09 Overcast SCT048 BKN060 OVC070 8 4.9 81% 6 76.63 0.0
29 22:35 NE 22 16.09 Overcast SCT018 BKN060 OVC075 8.4 5.1 80% 5 76.63 0.0
29 22:15 NE 7 16.09 Overcast SCT050 BKN060 OVC075 9.5 2.4 62% 9 76.61 0.0
29 21:55 N 17 16.09 Overcast SCT055 BKN065 OVC090 9.2 2.6 64% 7 76.61 0.0
29 21:35 NW 6 16.09 Overcast SCT042 BKN065 OVC080 8.9 5.2 78% 76.61 0.0
29 21:15 NW 15 16.09 Overcast SCT042 BKN055 OVC080 9.3 4.9 74% 7 76.58 0.0
29 20:47 Calm 16.09 Fair CLR 11 6 72% 76.35 0.0
29 15:47 S 22 G 35 16.09 Mostly Cloudy BKN050 11 6 72% 76.35 0.0
29 13:47 NE 24 G 37 16.09 Mostly Cloudy BKN049 14 2 44% 76.35 0.0
29 12:47 N 17 16.09 Light Rain BKN039 14 3 48% 76.4 0.0
Date Time (mdt) Wind (kph) Vis. (km) Weather Sky Cond. Air Dwpt Max. Min. Relative Humidity Wind Chill (°C) Heat Index (°C) altimeter (cm) sea level (mb) 1 hr 3 hr 6 hr
6 hour
Temperature (ºC) Pressure Precipitation (cm)